Flight Track Log - Related Links

Times and Time Zones

All times are in EDT time to prevent confusion due to time zone crossing. See the SWA378 flight status page for this flight to view local times or setup timezone preferences in your user account.

Time Position Orientation Groundspeed Altitude Reporting Facility
EDT Latitude Longitude Course Direction KTS MPH feet Rate Location/Type
Tue 01:21:27 PM 33.8667 -118.5167 209° Southwest 224 258 4,500  Level Southern California TRACON
Tue 01:21:59 PM 33.8369 -118.5181 182° South 238 274 5,600 2,434 Climbing Los Angeles Center
Tue 01:23:13 PM 33.7633 -118.5203 181° South 269 310 8,800 2,735 Climbing Los Angeles Center
Tue 01:24:15 PM 33.6806 -118.4653 151° Southeast 331 381 11,800 3,048 Climbing Los Angeles Center
Tue 01:25:17 PM 33.6453 -118.3328 108° East 361 415 15,100 2,784 Climbing Los Angeles Center
Tue 01:26:20 PM 33.6444 -118.2083 90° East 379 436 17,600 2,064 Climbing Los Angeles Center
Tue 01:27:22 PM 33.6439 -118.0711 90° East 400 460 19,400 1,694 Climbing Los Angeles Center
Tue 01:28:24 PM 33.6442 -117.9211 90° East 438 504 21,100 1,742 Climbing Los Angeles Center
Tue 01:29:26 PM 33.6444 -117.7286 90° East 476 548 23,000 1,887 Climbing Los Angeles Center
Tue 01:30:28 PM 33.6444 -117.5686 90° East 482 555 25,000 1,597 Climbing Los Angeles Center
Tue 01:31:30 PM 33.6428 -117.4011 91° East 497 572 26,300 1,403 Climbing Los Angeles Center
Tue 01:32:32 PM 33.6403 -117.2267 91° East 519 597 27,900 1,548 Climbing Los Angeles Center
Tue 01:33:34 PM 33.6383 -117.0467 91° East 537 618 29,500 1,742 Climbing Los Angeles Center
Tue 01:34:36 PM 33.6381 -116.8286 90° East 547 629 31,500 1,935 Climbing Los Angeles Center
Tue 01:35:38 PM 33.6672 -116.6417 79° East 544 626 33,500 1,790 Climbing Los Angeles Center
Tue 01:36:40 PM 33.6969 -116.4661 78° East 537 618 35,200 1,500 Climbing Los Angeles Center
Tue 01:37:42 PM 33.7253 -116.2939 79° East 530 610 36,600 871 Climbing Los Angeles Center
Tue 01:38:44 PM 33.7528 -116.1217 79° East 525 604 37,000 192 Climbing Los Angeles Center
Tue 01:39:47 PM 33.7806 -115.9492 79° East 524 603 37,000  Level Los Angeles Center
Tue 01:41:01 PM 33.8081 -115.7772 79° East 524 603 37,000  Level Los Angeles Center
Tue 01:42:03 PM 33.8414 -115.5708 79° East 524 603 37,000  Level Los Angeles Center
Tue 01:43:05 PM 33.8733 -115.3619 80° East 525 604 37,000  Level Los Angeles Center
Tue 01:44:07 PM 33.9017 -115.1944 78° East 515 593 37,000  Level Los Angeles Center
Tue 01:45:09 PM 33.9272 -115.0211 80° East 521 600 37,000  Level Los Angeles Center
Tue 01:46:12 PM 33.9544 -114.8517 79° East 518 596 37,000  Level Los Angeles Center
Tue 01:47:14 PM 33.9819 -114.6783 79° East 525 604 37,000  Level Los Angeles Center
Tue 01:48:16 PM 34.0044 -114.5042 81° East 527 606 37,000  Level Los Angeles Center
Tue 01:49:05 PM 34.0314 -114.3469 78° East 518 596 37,000  Level Albuquerque Center
Tue 01:50:07 PM 34.0567 -114.1778 80° East 515 593 37,000  Level Albuquerque Center
Tue 01:51:09 PM 34.0822 -114.0083 80° East 514 592 37,000  Level Albuquerque Center
Tue 01:52:10 PM 34.1053 -113.8386 81° East 515 593 37,000  Level Albuquerque Center
Tue 01:53:12 PM 34.1306 -113.6700 80° East 513 590 37,000  Level Albuquerque Center
Tue 01:54:14 PM 34.1578 -113.4672 81° East 512 589 37,000  Level Albuquerque Center
Tue 01:55:16 PM 34.1803 -113.2994 81° East 509 586 37,000  Level Albuquerque Center
Tue 01:56:18 PM 34.2022 -113.1289 81° East 511 588 37,000  Level Albuquerque Center
Tue 01:57:19 PM 34.2264 -112.9589 80° East 512 589 37,000  Level Albuquerque Center
Tue 01:58:21 PM 34.2522 -112.7892 80° East 513 590 37,000  Level Albuquerque Center
Tue 01:59:23 PM 34.2753 -112.6197 81° East 511 588 37,000  Level Albuquerque Center
Tue 02:00:25 PM 34.2975 -112.4503 81° East 511 588 37,000  Level Albuquerque Center
Tue 02:01:26 PM 34.3242 -112.2486 81° East 508 585 37,000  Level Albuquerque Center
Tue 02:02:28 PM 34.3456 -112.0806 81° East 504 580 37,000  Level Albuquerque Center
Tue 02:03:30 PM 34.3672 -111.9133 81° East 501 577 37,000  Level Albuquerque Center
Tue 02:04:31 PM 34.3886 -111.7458 81° East 499 574 37,000  Level Albuquerque Center
Tue 02:05:33 PM 34.4092 -111.5794 81° East 498 573 37,000  Level Albuquerque Center
Tue 02:06:35 PM 34.4294 -111.4139 82° East 496 571 37,000  Level Albuquerque Center
Tue 02:07:36 PM 34.4503 -111.2486 81° East 495 570 37,000  Level Albuquerque Center
Tue 02:08:38 PM 34.4700 -111.0833 82° East 496 571 37,000  Level Albuquerque Center
Tue 02:09:40 PM 34.4903 -110.9175 82° East 495 570 37,000  Level Albuquerque Center
Tue 02:10:41 PM 34.5097 -110.7506 82° East 494 568 37,000  Level Albuquerque Center
Tue 02:11:43 PM 34.5303 -110.5861 81° East 493 567 37,000  Level Albuquerque Center
Tue 02:12:44 PM 34.5533 -110.3914 82° East 491 565 37,000  Level Albuquerque Center
Tue 02:13:46 PM 34.5708 -110.2342 82° East 492 566 37,000  Level Albuquerque Center
Tue 02:14:48 PM 34.5908 -110.0517 82° East 490 564 37,000  Level Albuquerque Center
Tue 02:15:49 PM 34.6083 -109.8939 82° East 493 567 37,000  Level Albuquerque Center
Tue 02:16:51 PM 34.6281 -109.7111 82° East 491 565 37,000  Level Albuquerque Center
Tue 02:17:52 PM 34.6461 -109.5533 82° East 492 566 37,000  Level Albuquerque Center
Tue 02:18:54 PM 34.6653 -109.3725 83° East 489 563 37,000  Level Albuquerque Center
Tue 02:19:55 PM 34.6817 -109.2136 83° East 493 567 37,000  Level Albuquerque Center
Tue 02:20:57 PM 34.6986 -109.0586 82° East 488 562 37,000  Level Albuquerque Center
Tue 02:21:59 PM 34.7169 -108.8778 83° East 485 558 37,000  Level Albuquerque Center
Tue 02:23:00 PM 34.7339 -108.7211 82° East 489 563 37,000  Level Albuquerque Center
Tue 02:24:02 PM 34.7517 -108.5381 83° East 490 564 37,000  Level Albuquerque Center
Tue 02:25:03 PM 34.7683 -108.3736 83° East 487 560 37,000  Level Albuquerque Center
Tue 02:26:05 PM 34.7847 -108.2083 83° East 491 565 37,000  Level Albuquerque Center
Tue 02:27:06 PM 34.7997 -108.0453 84° East 488 562 37,000  Level Albuquerque Center
Tue 02:28:08 PM 34.8142 -107.8811 84° East 489 563 37,000  Level Albuquerque Center
Tue 02:29:10 PM 34.8311 -107.7183 83° East 487 560 37,000  Level Albuquerque Center
Tue 02:30:11 PM 34.8453 -107.5547 84° East 487 560 37,000  Level Albuquerque Center
Tue 02:31:13 PM 34.8592 -107.3931 84° East 484 557 37,000  Level Albuquerque Center
Tue 02:32:14 PM 34.8736 -107.2336 84° East 480 552 37,000  Level Albuquerque Center
Tue 02:33:16 PM 34.8922 -107.0364 83° East 474 545 37,000  Level Albuquerque Center
Tue 02:34:17 PM 34.9047 -106.8853 84° East 471 542 37,000  Level Albuquerque Center
Tue 02:35:19 PM 34.9153 -106.7364 85° East 462 532 37,000  Level Albuquerque Center
Tue 02:36:20 PM 34.9308 -106.5578 84° East 472 543 37,000  Level Albuquerque Center
Tue 02:37:22 PM 34.9414 -106.4167 85° East 481 554 37,000 439 Level Albuquerque Center
Tue 02:38:23 PM 34.9567 -106.2258 84° East 475 547 37,900 878 Climbing Albuquerque Center
Tue 02:39:25 PM 34.9700 -106.0661 84° East 476 548 38,800 532 Climbing Albuquerque Center
Tue 02:40:27 PM 34.9825 -105.9047 85° East 479 551 39,000 98 Climbing Albuquerque Center
Tue 02:41:28 PM 34.9947 -105.7456 85° East 480 552 39,000  Level Albuquerque Center
Tue 02:42:30 PM 35.0078 -105.5814 84° East 482 555 39,000  Level Albuquerque Center
Tue 02:43:32 PM 35.0206 -105.3894 85° East 482 555 39,000  Level Albuquerque Center
Tue 02:44:34 PM 35.0331 -105.2264 85° East 480 552 39,000  Level Albuquerque Center
Tue 02:45:35 PM 35.0458 -105.0647 84° East 476 548 39,000  Level Albuquerque Center
Tue 02:46:37 PM 35.0561 -104.9025 86° East 476 548 39,000  Level Albuquerque Center
Tue 02:47:38 PM 35.0667 -104.7400 85° East 477 549 39,000  Level Albuquerque Center
Tue 02:48:40 PM 35.0803 -104.5653 85° East 476 548 39,000  Level Albuquerque Center
Tue 02:49:42 PM 35.0925 -104.3992 85° East 477 549 39,000  Level Albuquerque Center
Tue 02:50:44 PM 35.1019 -104.2342 86° East 485 558 39,000  Level Albuquerque Center
Tue 02:51:45 PM 35.1128 -104.0694 85° East 488 562 39,000  Level Albuquerque Center
Tue 02:52:47 PM 35.1217 -103.8994 86° East 484 557 39,000  Level Albuquerque Center
Tue 02:53:49 PM 35.1317 -103.7361 86° East 482 555 39,000  Level Albuquerque Center
Tue 02:54:50 PM 35.1419 -103.5717 86° East 483 556 39,000  Level Albuquerque Center
Tue 02:55:52 PM 35.1514 -103.4075 86° East 482 555 39,000  Level Albuquerque Center
Tue 02:56:54 PM 35.1614 -103.2433 86° East 481 554 39,000  Level Albuquerque Center
Tue 02:57:56 PM 35.1717 -103.0506 86° East 483 556 39,000  Level Albuquerque Center
Tue 02:58:57 PM 35.1792 -102.8942 87° East 486 559 39,000  Level Albuquerque Center
Tue 02:59:59 PM 35.1878 -102.7292 86° East 488 562 39,000  Level Albuquerque Center
Tue 03:01:01 PM 35.1956 -102.5647 87° East 487 560 39,000  Level Albuquerque Center
Tue 03:02:03 PM 35.2039 -102.3994 86° East 487 560 39,000  Level Albuquerque Center
Tue 03:03:05 PM 35.2125 -102.2028 87° East 485 558 39,000  Level Albuquerque Center
Tue 03:04:06 PM 35.2200 -102.0386 87° East 484 557 39,000  Level Albuquerque Center
Tue 03:05:08 PM 35.2281 -101.8878 86° East 484 557 39,000  Level Albuquerque Center
Tue 03:06:10 PM 35.2347 -101.7225 87° East 482 555 39,000  Level Albuquerque Center
Tue 03:07:12 PM 35.2439 -101.5303 87° East 483 556 39,000  Level Albuquerque Center
Tue 03:08:13 PM 35.2517 -101.3664 87° East 480 552 39,000  Level Albuquerque Center
Tue 03:09:15 PM 35.2578 -101.2072 87° East 480 552 39,000  Level Albuquerque Center
Tue 03:10:17 PM 35.2644 -101.0453 87° East 479 551 39,000  Level Albuquerque Center
Tue 03:11:19 PM 35.2703 -100.8825 87° East 480 552 39,000  Level Albuquerque Center
Tue 03:12:21 PM 35.2769 -100.7200 87° East 481 554 39,000  Level Albuquerque Center
Tue 03:13:22 PM 35.2853 -100.5239 87° East 482 555 39,000  Level Albuquerque Center
Tue 03:14:24 PM 35.2911 -100.3606 87° East 482 555 39,000  Level Albuquerque Center
Tue 03:15:26 PM 35.2969 -100.1953 87° East 484 557 39,000  Level Albuquerque Center
Tue 03:16:28 PM 35.3022 -100.0319 88° East 483 556 39,000  Level Albuquerque Center
Tue 03:17:30 PM 35.3078 -99.8664 88° East 486 559 39,000  Level Albuquerque Center
Tue 03:18:31 PM 35.3128 -99.7008 88° East 488 562 39,000  Level Albuquerque Center
Tue 03:19:33 PM 35.3181 -99.5339 88° East 489 563 39,000  Level Albuquerque Center
Tue 03:20:35 PM 35.3233 -99.3339 88° East 492 566 39,000  Level Albuquerque Center
Tue 03:21:37 PM 35.3272 -99.1686 88° East 488 562 39,000  Level Albuquerque Center
Tue 03:22:38 PM 35.3322 -99.0011 88° East 491 565 39,000  Level Albuquerque Center
Tue 03:23:40 PM 35.3369 -98.8350 88° East 491 565 39,000  Level Albuquerque Center
Tue 03:24:40 PM 35.3394 -98.6656 89° East 478 550 39,000  Level Fort Worth Center
Tue 03:25:40 PM 35.3431 -98.5003 88° East 478 550 39,000  Level Fort Worth Center
Tue 03:26:40 PM 35.3464 -98.3400 88° East 478 550 39,000  Level Fort Worth Center
Tue 03:27:40 PM 35.3497 -98.1797 88° East 478 550 39,000  Level Fort Worth Center
Tue 03:28:40 PM 35.3525 -98.0167 89° East 478 550 39,000  Level Fort Worth Center
Tue 03:29:40 PM 35.3533 -97.8589 90° East 472 543 39,000  Level Fort Worth Center
Tue 03:30:40 PM 35.3558 -97.6936 89° East 472 543 39,000  Level Fort Worth Center
Tue 03:31:40 PM 35.3581 -97.5358 89° East 472 543 39,000  Level Fort Worth Center
Tue 03:32:40 PM 35.3644 -97.3781 87° East 485 558 39,000  Level Fort Worth Center
Tue 03:33:39 PM 35.3644 -97.1972 90° East 479 551 39,000  Level Fort Worth Center
Tue 03:34:40 PM 35.3681 -97.0494 88° East 485 558 39,000  Level Fort Worth Center
Tue 03:35:40 PM 35.3697 -96.8867 89° East 479 551 39,000  Level Fort Worth Center
Tue 03:36:40 PM 35.3731 -96.7286 88° East 474 545 39,000  Level Fort Worth Center
Tue 03:37:40 PM 35.3764 -96.5633 89° East 474 545 39,000  Level Fort Worth Center
Tue 03:38:40 PM 35.3772 -96.4028 90° East 474 545 39,000  Level Fort Worth Center
Tue 03:39:40 PM 35.3800 -96.2425 89° East 474 545 39,000  Level Fort Worth Center
Tue 03:40:40 PM 35.3806 -96.0819 90° East 474 545 39,000  Level Fort Worth Center
Tue 03:41:40 PM 35.3828 -95.9217 89° East 474 545 39,000  Level Fort Worth Center
Tue 03:42:40 PM 35.3850 -95.7686 89° East 462 532 39,000  Level Fort Worth Center
Tue 03:45:08 PM 35.3886 -95.3692 89° East 482 555 39,000  Level Memphis Center
Tue 03:46:08 PM 35.3886 -95.2086 90° East 482 555 39,000  Level Memphis Center
Tue 03:47:08 PM 35.3864 -95.0456 91° East 482 555 39,000  Level Memphis Center
Tue 03:48:08 PM 35.3864 -94.8825 90° East 482 555 39,000  Level Memphis Center
Tue 03:49:08 PM 35.3878 -94.7247 89° East 476 548 39,000  Level Memphis Center
Tue 03:50:08 PM 35.3850 -94.5642 91° East 476 548 39,000  Level Memphis Center
Tue 03:51:08 PM 35.3861 -94.4039 89° East 476 548 39,000  Level Memphis Center
Tue 03:52:08 PM 35.3856 -94.2231 90° East 482 555 39,000  Level Memphis Center
Tue 03:53:08 PM 35.3717 -94.0644 96° East 477 549 39,000  Level Memphis Center
Tue 03:54:08 PM 35.3617 -93.9061 94° East 477 549 39,000  Level Memphis Center
Tue 03:55:08 PM 35.3494 -93.7478 95° East 471 542 39,000  Level Memphis Center
Tue 03:56:08 PM 35.3389 -93.5869 95° East 466 536 39,000  Level Memphis Center
Tue 03:57:08 PM 35.3264 -93.4314 96° East 466 536 39,000  Level Memphis Center
Tue 03:58:08 PM 35.3156 -93.2731 95° East 459 528 39,000  Level Memphis Center
Tue 03:59:08 PM 35.3025 -93.1150 96° East 469 540 39,000  Level Memphis Center
Tue 04:00:08 PM 35.2911 -92.9594 95° East 469 540 39,000  Level Memphis Center
Tue 04:01:08 PM 35.2797 -92.8064 95° East 463 533 39,000  Level Memphis Center
Tue 04:02:08 PM 35.2636 -92.6533 97° East 472 543 39,000  Level Memphis Center
Tue 04:03:08 PM 35.2519 -92.5006 95° East 479 551 39,000  Level Memphis Center
Tue 04:04:08 PM 35.2397 -92.3453 95° East 466 536 39,000  Level Memphis Center
Tue 04:05:08 PM 35.2275 -92.1922 96° East 461 531 39,000  Level Memphis Center
Tue 04:06:08 PM 35.2131 -92.0394 97° East 461 531 39,000  Level Memphis Center
Tue 04:07:08 PM 35.1983 -91.8842 97° East 461 531 39,000  Level Memphis Center
Tue 04:08:08 PM 35.1856 -91.7317 96° East 461 531 39,000  Level Memphis Center
Tue 04:09:08 PM 35.1703 -91.5814 97° East 461 531 39,000  Level Memphis Center
Tue 04:10:08 PM 35.1592 -91.4264 95° East 456 525 39,000  Level Memphis Center
Tue 04:11:08 PM 35.1439 -91.2611 96° East 450 518 39,000  Level Memphis Center
Tue 04:12:08 PM 35.1303 -91.1086 96° East 445 512 39,000 -350 Level Memphis Center
Tue 04:13:08 PM 35.1144 -90.9561 97° East 445 512 38,300 -850 Descending Memphis Center
Tue 04:14:08 PM 35.0983 -90.8011 97° East 454 522 37,300 -650 Descending Memphis Center
Tue 04:15:08 PM 35.0842 -90.6489 96° East 454 522 37,000 -150 Descending Memphis Center
Tue 04:16:08 PM 35.0700 -90.4967 96° East 449 517 37,000  Level Memphis Center
Tue 04:17:08 PM 35.0533 -90.3419 97° East 449 517 37,000  Level Memphis Center
Tue 04:18:08 PM 35.0386 -90.1897 97° East 449 517 37,000  Level Memphis Center
Tue 04:19:08 PM 35.0236 -90.0528 98° East 449 517 37,000  Level Memphis Center
Tue 04:20:08 PM 35.0064 -89.8981 98° East 456 525 37,000  Level Memphis Center
Tue 04:21:08 PM 34.9828 -89.7386 100° East 468 539 37,000  Level Memphis Center
Tue 04:22:08 PM 34.9567 -89.5639 100° East 483 556 37,000  Level Memphis Center
Tue 04:23:08 PM 34.9306 -89.4122 102° East 468 539 37,000  Level Memphis Center
Tue 04:24:08 PM 34.9086 -89.2556 100° East 468 539 37,000  Level Memphis Center
Tue 04:25:09 PM 34.8842 -89.1039 101° East 461 531 37,000  Level Memphis Center
Tue 04:26:08 PM 34.8617 -88.9475 100° East 461 531 37,000  Level Memphis Center
Tue 04:27:08 PM 34.8369 -88.7961 101° East 461 531 37,000 -100 Level Memphis Center
Tue 04:28:08 PM 34.8183 -88.6622 100° East 461 531 36,800 -600 Descending Memphis Center
Tue 04:29:08 PM 34.7911 -88.5061 102° East 467 537 35,800 -900 Descending Memphis Center
Tue 04:30:08 PM 34.7656 -88.3447 101° East 459 528 35,000 -700 Descending Memphis Center
Tue 04:31:08 PM 34.7422 -88.1936 101° East 459 528 34,400 -750 Descending Memphis Center
Tue 04:32:08 PM 34.7189 -88.0553 102° East 464 534 33,500 -700 Descending Memphis Center
Tue 04:33:08 PM 34.6975 -87.9144 100° East 442 509 33,000 -250 Descending Memphis Center
Tue 04:34:08 PM 34.6733 -87.7561 100° East 432 497 33,000  Level Memphis Center
Tue 04:35:08 PM 34.6472 -87.6131 102° East 432 497 33,000  Level Memphis Center
Tue 04:36:08 PM 34.6258 -87.4900 102° East 426 490 33,000  Level Memphis Center
Tue 04:37:46 PM 34.5814 -87.2328 102° East 453 521 33,000  Level Atlanta Center
Tue 04:38:46 PM 34.5539 -87.0881 103° East 444 511 33,000  Level Atlanta Center
Tue 04:39:46 PM 34.5258 -86.9433 103° East 439 505 33,000  Level Atlanta Center
Tue 04:40:46 PM 34.4981 -86.7961 103° East 439 505 33,000 -450 Level Atlanta Center
Tue 04:41:46 PM 34.4700 -86.6492 103° East 439 505 32,100 -950 Descending Atlanta Center
Tue 04:42:46 PM 34.4417 -86.5047 103° East 439 505 31,100 -1,000 Descending Atlanta Center
Tue 04:43:46 PM 34.4131 -86.3603 103° East 439 505 30,100 -1,000 Descending Atlanta Center
Tue 04:44:46 PM 34.3864 -86.2211 103° East 434 499 29,100 -550 Descending Atlanta Center
Tue 04:45:46 PM 34.3597 -86.0844 103° East 429 494 29,000 -750 Descending Atlanta Center
Tue 04:46:46 PM 34.3306 -85.9481 104° East 429 494 27,600 -1,450 Descending Atlanta Center
Tue 04:47:46 PM 34.3111 -85.8394 102° East 419 482 26,100 -1,750 Descending Atlanta Center
Tue 04:48:46 PM 34.2800 -85.6881 104° East 392 451 24,100 -1,900 Descending Atlanta Center
Tue 04:49:46 PM 34.2564 -85.5644 103° East 378 435 22,300 -1,700 Descending Atlanta Center
Tue 04:50:46 PM 34.2308 -85.4483 105° East 368 423 20,700 -1,650 Descending Atlanta Center
Tue 04:51:46 PM 34.2069 -85.3375 105° East 352 405 19,000 -1,600 Descending Atlanta Center
Tue 04:52:46 PM 34.1872 -85.2242 102° East 340 391 17,500 -1,650 Descending Atlanta Center
Tue 04:53:46 PM 34.1569 -85.1133 108° East 340 391 15,700 -1,750 Descending Atlanta Center
Tue 04:54:46 PM 34.0889 -85.0244 133° Southeast 345 397 14,000 -850 Descending Atlanta Center
Tue 04:55:46 PM 34.0247 -84.9436 134° Southeast 340 391 14,000 -750 Level Atlanta Center
Tue 04:56:46 PM 33.9606 -84.8603 133° Southeast 340 391 12,500 -1,000 Descending Atlanta Center
Tue 04:57:46 PM 33.8964 -84.7769 133° Southeast 334 384 12,000 -337 Descending Atlanta Center
Tue 04:58:15 PM 33.8667 -84.7333 129° Southeast 328 377 12,000  Level Atlanta TRACON
Tue 04:59:15 PM 33.8000 -84.6500 134° Southeast 306 352 12,000  Level Atlanta TRACON
Tue 05:00:15 PM 33.7500 -84.5833 132° Southeast 271 312 12,000 -550 Level Atlanta TRACON
Tue 05:01:15 PM 33.7333 -84.5000 104° East 267 307 10,900 -1,100 Descending Atlanta TRACON
Tue 05:02:15 PM 33.7333 -84.4167 90° East 267 307 9,800 -1,300 Descending Atlanta TRACON
Tue 05:03:15 PM 33.7333 -84.3333 90° East 252 290 8,300 -1,600 Descending Atlanta TRACON
Tue 05:04:15 PM 33.7333 -84.2667 90° East 237 273 6,600 -1,650 Descending Atlanta TRACON
Tue 05:05:15 PM 33.7000 -84.2000 121° Southeast 255 293 5,000 -1,300 Descending Atlanta TRACON
Tue 05:06:15 PM 33.6500 -84.2500 220° Southwest 205 236 4,000 -1,150 Descending Atlanta TRACON
Tue 05:07:15 PM 33.6500 -84.3000 270° West 161 185 2,700 -1,050 Descending Atlanta TRACON
Tue 05:08:15 PM 33.6500 -84.3500 270° West 139 160 1,900 -750 Descending Atlanta TRACON
Tue 05:09:15 PM 33.6500 -84.4000 270° West 132 152 1,200 -700 Descending Atlanta TRACON
Tue 05:11:00 PM 33.6333 -84.4167 250° West  Level FlightAware Approximate
Tue 05:18:00 PM 33.6367 -84.4279 250° West  Level Estimated

Login

Don't have an account? Register now (free) for customized features, flight alerts, and more!